sensor_id;sensor_type;location;lat;lon;timestamp;pressure;altitude;pressure_sealevel;temperature;humidity
12879;BME280;20617;49.476;10.986;2023-04-03T00:00:40;99060.81;;;5.49;100.00
12879;BME280;20617;49.476;10.986;2023-04-03T00:02:45;99066.84;;;5.49;100.00
12879;BME280;20617;49.476;10.986;2023-04-03T00:04:50;99063.53;;;5.36;100.00
12879;BME280;20617;49.476;10.986;2023-04-03T00:06:55;99056.69;;;5.31;100.00
12879;BME280;20617;49.476;10.986;2023-04-03T00:09:00;99058.31;;;5.42;100.00
12879;BME280;20617;49.476;10.986;2023-04-03T00:11:06;99053.13;;;5.47;100.00
12879;BME280;20617;49.476;10.986;2023-04-03T00:13:11;99049.56;;;5.57;100.00
12879;BME280;20617;49.476;10.986;2023-04-03T00:15:17;99046.91;;;5.65;100.00
12879;BME280;20617;49.476;10.986;2023-04-03T00:17:25;99058.03;;;5.73;100.00
12879;BME280;20617;49.476;10.986;2023-04-03T00:19:30;99050.31;;;5.68;100.00
12879;BME280;20617;49.476;10.986;2023-04-03T00:21:35;99056.41;;;5.63;100.00
12879;BME280;20617;49.476;10.986;2023-04-03T00:23:40;99054.72;;;5.59;100.00
12879;BME280;20617;49.476;10.986;2023-04-03T00:25:45;99055.63;;;5.52;100.00
12879;BME280;20617;49.476;10.986;2023-04-03T00:27:50;99062.63;;;5.40;100.00
12879;BME280;20617;49.476;10.986;2023-04-03T00:29:55;99060.91;;;5.38;100.00
12879;BME280;20617;49.476;10.986;2023-04-03T00:32:00;99053.19;;;5.36;100.00
12879;BME280;20617;49.476;10.986;2023-04-03T00:34:08;99055.78;;;5.36;100.00
12879;BME280;20617;49.476;10.986;2023-04-03T00:36:13;99058.34;;;5.36;100.00
12879;BME280;20617;49.476;10.986;2023-04-03T00:38:18;99054.06;;;5.35;100.00
12879;BME280;20617;49.476;10.986;2023-04-03T00:40:26;99062.66;;;5.34;100.00
12879;BME280;20617;49.476;10.986;2023-04-03T00:42:31;99063.53;;;5.32;100.00
12879;BME280;20617;49.476;10.986;2023-04-03T00:47:27;99065.34;;;5.24;100.00
12879;BME280;20617;49.476;10.986;2023-04-03T00:49:35;99060.16;;;5.30;100.00
12879;BME280;20617;49.476;10.986;2023-04-03T00:51:42;99062.72;;;5.30;100.00
12879;BME280;20617;49.476;10.986;2023-04-03T00:53:50;99060.16;;;5.27;100.00
12879;BME280;20617;49.476;10.986;2023-04-03T00:56:00;99065.31;;;5.25;100.00
12879;BME280;20617;49.476;10.986;2023-04-03T00:58:05;99057.53;;;5.33;100.00
12879;BME280;20617;49.476;10.986;2023-04-03T01:00:14;99068.72;;;5.33;100.00
12879;BME280;20617;49.476;10.986;2023-04-03T01:02:20;99058.38;;;5.32;100.00
12879;BME280;20617;49.476;10.986;2023-04-03T01:04:28;99070.47;;;5.30;100.00
12879;BME280;20617;49.476;10.986;2023-04-03T01:06:37;99058.34;;;5.35;100.00
12879;BME280;20617;49.476;10.986;2023-04-03T01:08:43;99055.75;;;5.38;100.00
12879;BME280;20617;49.476;10.986;2023-04-03T01:10:49;99059.13;;;5.46;100.00
12879;BME280;20617;49.476;10.986;2023-04-03T01:12:56;99057.44;;;5.45;100.00
12879;BME280;20617;49.476;10.986;2023-04-03T01:15:05;99054.06;;;5.35;100.00
12879;BME280;20617;49.476;10.986;2023-04-03T01:17:27;99058.31;;;5.41;100.00
12879;BME280;20617;49.476;10.986;2023-04-03T01:19:33;99058.31;;;5.44;100.00
12879;BME280;20617;49.476;10.986;2023-04-03T01:22:03;99060.84;;;5.50;100.00
12879;BME280;20617;49.476;10.986;2023-04-03T01:24:24;99063.47;;;5.44;100.00
12879;BME280;20617;49.476;10.986;2023-04-03T01:26:33;99061.78;;;5.38;100.00
12879;BME280;20617;49.476;10.986;2023-04-03T01:28:38;99058.34;;;5.36;100.00
12879;BME280;20617;49.476;10.986;2023-04-03T01:30:45;99057.47;;;5.37;100.00
12879;BME280;20617;49.476;10.986;2023-04-03T01:32:55;99057.56;;;5.30;100.00
12879;BME280;20617;49.476;10.986;2023-04-03T01:35:00;99065.34;;;5.20;100.00
12879;BME280;20617;49.476;10.986;2023-04-03T01:37:05;99061.91;;;5.21;100.00
12879;BME280;20617;49.476;10.986;2023-04-03T01:39:10;99061.09;;;5.18;100.00
12879;BME280;20617;49.476;10.986;2023-04-03T01:41:16;99058.44;;;5.26;100.00
12879;BME280;20617;49.476;10.986;2023-04-03T01:43:23;99060.94;;;5.35;100.00
12879;BME280;20617;49.476;10.986;2023-04-03T01:45:28;99059.19;;;5.41;100.00
12879;BME280;20617;49.476;10.986;2023-04-03T01:47:33;99059.13;;;5.46;100.00
12879;BME280;20617;49.476;10.986;2023-04-03T01:49:42;99058.31;;;5.38;100.00
12879;BME280;20617;49.476;10.986;2023-04-03T01:51:47;99063.59;;;5.26;100.00
12879;BME280;20617;49.476;10.986;2023-04-03T01:53:52;99060.16;;;5.27;100.00
12879;BME280;20617;49.476;10.986;2023-04-03T01:55:57;99065.34;;;5.24;100.00
12879;BME280;20617;49.476;10.986;2023-04-03T01:58:04;99052.44;;;5.24;100.00
12879;BME280;20617;49.476;10.986;2023-04-03T02:00:11;99059.34;;;5.20;100.00
12879;BME280;20617;49.476;10.986;2023-04-03T02:02:16;99063.75;;;5.07;100.00
12879;BME280;20617;49.476;10.986;2023-04-03T02:04:22;99062.16;;;4.85;100.00
12879;BME280;20617;49.476;10.986;2023-04-03T02:06:30;99058.78;;;4.75;100.00
12879;BME280;20617;49.476;10.986;2023-04-03T02:08:35;99057.91;;;4.78;100.00
12879;BME280;20617;49.476;10.986;2023-04-03T02:10:40;99067.44;;;4.62;100.00
12879;BME280;20617;49.476;10.986;2023-04-03T02:12:45;99064.03;;;4.61;100.00
12879;BME280;20617;49.476;10.986;2023-04-03T02:14:50;99074.34;;;4.63;100.00
12879;BME280;20617;49.476;10.986;2023-04-03T02:16:55;99069.25;;;4.49;100.00
12879;BME280;20617;49.476;10.986;2023-04-03T02:19:00;99072.63;;;4.59;100.00
12879;BME280;20617;49.476;10.986;2023-04-03T02:21:05;99075.16;;;4.65;100.00
12879;BME280;20617;49.476;10.986;2023-04-03T02:23:13;99070.03;;;4.63;100.00
12879;BME280;20617;49.476;10.986;2023-04-03T02:25:18;99066.63;;;4.50;100.00
12879;BME280;20617;49.476;10.986;2023-04-03T02:27:23;99064.09;;;4.46;100.00
12879;BME280;20617;49.476;10.986;2023-04-03T02:29:28;99067.56;;;4.40;100.00
12879;BME280;20617;49.476;10.986;2023-04-03T02:31:33;99063.28;;;4.35;100.00
12879;BME280;20617;49.476;10.986;2023-04-03T02:33:39;99066.69;;;4.46;100.00
12879;BME280;20617;49.476;10.986;2023-04-03T02:35:52;99071.78;;;4.53;100.00
12879;BME280;20617;49.476;10.986;2023-04-03T02:37:58;99071.84;;;4.41;100.00
12879;BME280;20617;49.476;10.986;2023-04-03T02:40:06;99067.56;;;4.40;100.00
12879;BME280;20617;49.476;10.986;2023-04-03T02:42:13;99075.34;;;4.28;100.00
12879;BME280;20617;49.476;10.986;2023-04-03T02:44:18;99071.91;;;4.21;100.00
12879;BME280;20617;49.476;10.986;2023-04-03T02:46:27;99066.75;;;4.26;100.00
12879;BME280;20617;49.476;10.986;2023-04-03T02:48:33;99071.94;;;4.18;100.00
12879;BME280;20617;49.476;10.986;2023-04-03T02:50:38;99070.25;;;4.06;100.00
12879;BME280;20617;49.476;10.986;2023-04-03T02:52:43;99067.66;;;4.09;100.00
12879;BME280;20617;49.476;10.986;2023-04-03T02:54:48;99068.53;;;4.07;100.00
12879;BME280;20617;49.476;10.986;2023-04-03T02:56:55;99073.69;;;4.05;100.00
12879;BME280;20617;49.476;10.986;2023-04-03T02:59:00;99075.44;;;4.02;100.00
12879;BME280;20617;49.476;10.986;2023-04-03T03:01:07;99072.00;;;3.89;100.00
12879;BME280;20617;49.476;10.986;2023-04-03T03:03:12;99074.59;;;3.83;100.00
12879;BME280;20617;49.476;10.986;2023-04-03T03:05:18;99078.03;;;3.74;100.00
12879;BME280;20617;49.476;10.986;2023-04-03T03:07:23;99072.03;;;3.74;100.00
12879;BME280;20617;49.476;10.986;2023-04-03T03:09:28;99084.91;;;3.71;100.00
12879;BME280;20617;49.476;10.986;2023-04-03T03:11:33;99079.78;;;3.65;100.00
12879;BME280;20617;49.476;10.986;2023-04-03T03:13:41;99075.47;;;3.71;100.00
12879;BME280;20617;49.476;10.986;2023-04-03T03:15:46;99072.91;;;3.68;100.00
12879;BME280;20617;49.476;10.986;2023-04-03T03:17:52;99069.47;;;3.68;100.00
12879;BME280;20617;49.476;10.986;2023-04-03T03:19:57;99068.63;;;3.70;100.00
12879;BME280;20617;49.476;10.986;2023-04-03T03:22:03;99070.31;;;3.63;100.00
12879;BME280;20617;49.476;10.986;2023-04-03T03:24:08;99073.78;;;3.70;100.00
12879;BME280;20617;49.476;10.986;2023-04-03T03:26:14;99069.47;;;3.68;100.00
12879;BME280;20617;49.476;10.986;2023-04-03T03:28:18;99081.50;;;3.62;100.00
12879;BME280;20617;49.476;10.986;2023-04-03T03:30:26;99077.22;;;3.58;100.00
12879;BME280;20617;49.476;10.986;2023-04-03T03:32:31;99070.34;;;3.57;100.00
12879;BME280;20617;49.476;10.986;2023-04-03T03:34:36;99064.31;;;3.66;100.00
12879;BME280;20617;49.476;10.986;2023-04-03T03:36:41;99075.50;;;3.73;100.00
12879;BME280;20617;49.476;10.986;2023-04-03T03:38:47;99078.03;;;3.74;100.00
12879;BME280;20617;49.476;10.986;2023-04-03T03:40:52;99075.47;;;3.79;100.00
12879;BME280;20617;49.476;10.986;2023-04-03T03:42:58;99072.91;;;3.76;100.00
12879;BME280;20617;49.476;10.986;2023-04-03T03:45:03;99074.63;;;3.66;100.00
12879;BME280;20617;49.476;10.986;2023-04-03T03:47:11;99076.34;;;3.70;100.00
12879;BME280;20617;49.476;10.986;2023-04-03T03:49:16;99074.59;;;3.72;100.00
12879;BME280;20617;49.476;10.986;2023-04-03T03:51:22;99072.88;;;3.77;100.00
12879;BME280;20617;49.476;10.986;2023-04-03T03:53:27;99072.88;;;3.82;100.00
12879;BME280;20617;49.476;10.986;2023-04-03T03:55:37;99071.19;;;3.70;100.00
12879;BME280;20617;49.476;10.986;2023-04-03T03:57:42;99072.03;;;3.74;100.00
12879;BME280;20617;49.476;10.986;2023-04-03T03:59:47;99079.78;;;3.71;100.00
12879;BME280;20617;49.476;10.986;2023-04-03T04:01:53;99081.47;;;3.72;100.00
12879;BME280;20617;49.476;10.986;2023-04-03T04:04:01;99071.19;;;3.73;100.00
12879;BME280;20617;49.476;10.986;2023-04-03T04:06:06;99074.63;;;3.68;100.00
12879;BME280;20617;49.476;10.986;2023-04-03T04:08:12;99078.94;;;3.67;100.00
12879;BME280;20617;49.476;10.986;2023-04-03T04:10:19;99081.50;;;3.66;100.00
12879;BME280;20617;49.476;10.986;2023-04-03T04:12:24;99084.09;;;3.61;100.00
12879;BME280;20617;49.476;10.986;2023-04-03T04:14:29;99084.94;;;3.58;100.00
12879;BME280;20617;49.476;10.986;2023-04-03T04:16:35;99084.09;;;3.61;100.00
12879;BME280;20617;49.476;10.986;2023-04-03T04:18:45;99084.94;;;3.68;100.00
12879;BME280;20617;49.476;10.986;2023-04-03T04:20:52;99084.09;;;3.61;100.00
12879;BME280;20617;49.476;10.986;2023-04-03T04:22:58;99088.34;;;3.63;100.00
12879;BME280;20617;49.476;10.986;2023-04-03T04:25:05;99083.19;;;3.60;100.00
12879;BME280;20617;49.476;10.986;2023-04-03T04:27:11;99084.94;;;3.57;100.00
12879;BME280;20617;49.476;10.986;2023-04-03T04:29:17;99084.06;;;3.66;100.00
12879;BME280;20617;49.476;10.986;2023-04-03T04:31:24;99090.09;;;3.65;100.00
12879;BME280;20617;49.476;10.986;2023-04-03T04:33:29;99087.50;;;3.51;100.00
12879;BME280;20617;49.476;10.986;2023-04-03T04:35:37;99082.34;;;3.54;100.00
12879;BME280;20617;49.476;10.986;2023-04-03T04:37:45;99090.94;;;3.53;100.00
12879;BME280;20617;49.476;10.986;2023-04-03T04:39:51;99087.53;;;3.52;100.00
12879;BME280;20617;49.476;10.986;2023-04-03T04:41:56;99090.09;;;3.49;100.00
12879;BME280;20617;49.476;10.986;2023-04-03T04:44:04;99090.09;;;3.45;100.00
12879;BME280;20617;49.476;10.986;2023-04-03T04:46:10;99090.97;;;3.47;100.00
12879;BME280;20617;49.476;10.986;2023-04-03T04:48:21;99088.38;;;3.37;100.00
12879;BME280;20617;49.476;10.986;2023-04-03T04:50:26;99092.66;;;3.38;100.00
12879;BME280;20617;49.476;10.986;2023-04-03T04:52:31;99094.38;;;3.35;100.00
12879;BME280;20617;49.476;10.986;2023-04-03T04:54:39;99102.09;;;3.30;100.00
12879;BME280;20617;49.476;10.986;2023-04-03T04:56:44;99105.53;;;3.23;100.00
12879;BME280;20617;49.476;10.986;2023-04-03T04:58:49;99104.66;;;3.18;100.00
12879;BME280;20617;49.476;10.986;2023-04-03T05:00:59;99107.25;;;3.24;100.00
12879;BME280;20617;49.476;10.986;2023-04-03T05:03:06;99109.81;;;3.21;100.00
12879;BME280;20617;49.476;10.986;2023-04-03T05:05:11;99114.09;;;3.17;100.00
12879;BME280;20617;49.476;10.986;2023-04-03T05:07:16;99120.09;;;3.20;100.00
12879;BME280;20617;49.476;10.986;2023-04-03T05:09:21;99122.69;;;3.27;100.00
12879;BME280;20617;49.476;10.986;2023-04-03T05:11:30;99120.97;;;3.34;100.00
12879;BME280;20617;49.476;10.986;2023-04-03T05:13:34;99121.84;;;3.40;100.00
12879;BME280;20617;49.476;10.986;2023-04-03T05:15:39;99112.38;;;3.46;100.00
12879;BME280;20617;49.476;10.986;2023-04-03T05:17:44;99118.41;;;3.51;100.00
12879;BME280;20617;49.476;10.986;2023-04-03T05:19:49;99123.56;;;3.48;100.00
12879;BME280;20617;49.476;10.986;2023-04-03T05:21:56;99120.13;;;3.44;100.00
12879;BME280;20617;49.476;10.986;2023-04-03T05:24:04;99123.56;;;3.42;100.00
12879;BME280;20617;49.476;10.986;2023-04-03T05:26:14;99130.41;;;3.46;100.00
12879;BME280;20617;49.476;10.986;2023-04-03T05:28:24;99132.13;;;3.37;100.00
12879;BME280;20617;49.476;10.986;2023-04-03T05:30:29;99130.41;;;3.39;100.00
12879;BME280;20617;49.476;10.986;2023-04-03T05:32:36;99135.56;;;3.38;100.00
12879;BME280;20617;49.476;10.986;2023-04-03T05:35:02;99134.69;;;3.39;100.00
12879;BME280;20617;49.476;10.986;2023-04-03T05:37:07;99137.28;;;3.37;100.00
12879;BME280;20617;49.476;10.986;2023-04-03T05:39:12;99136.41;;;3.38;100.00
12879;BME280;20617;49.476;10.986;2023-04-03T05:41:19;99130.41;;;3.52;100.00
12879;BME280;20617;49.476;10.986;2023-04-03T05:43:27;99141.59;;;3.52;100.00
12879;BME280;20617;49.476;10.986;2023-04-03T05:45:33;99136.44;;;3.55;100.00
12879;BME280;20617;49.476;10.986;2023-04-03T05:47:37;99128.72;;;3.58;100.00
12879;BME280;20617;49.476;10.986;2023-04-03T05:49:43;99133.00;;;3.61;100.00
12879;BME280;20617;49.476;10.986;2023-04-03T05:51:51;99137.28;;;3.65;100.00
12879;BME280;20617;49.476;10.986;2023-04-03T05:54:09;99135.56;;;3.70;100.00
12879;BME280;20617;49.476;10.986;2023-04-03T05:56:16;99134.69;;;3.74;100.00
12879;BME280;20617;49.476;10.986;2023-04-03T05:58:22;99137.28;;;3.77;100.00
12879;BME280;20617;49.476;10.986;2023-04-03T06:00:30;99145.84;;;3.79;100.00
12879;BME280;20617;49.476;10.986;2023-04-03T06:02:37;99139.84;;;3.86;100.00
12879;BME280;20617;49.476;10.986;2023-04-03T06:04:50;99144.13;;;3.88;100.00
12879;BME280;20617;49.476;10.986;2023-04-03T06:06:56;99149.28;;;4.04;100.00
12879;BME280;20617;49.476;10.986;2023-04-03T06:09:02;99139.78;;;4.17;100.00
12879;BME280;20617;49.476;10.986;2023-04-03T06:11:07;99143.22;;;4.21;100.00
12879;BME280;20617;49.476;10.986;2023-04-03T06:13:12;99138.03;;;4.31;100.00
12879;BME280;20617;49.476;10.986;2023-04-03T06:15:17;99143.22;;;4.28;100.00
12879;BME280;20617;49.476;10.986;2023-04-03T06:17:25;99141.44;;;4.44;100.00
12879;BME280;20617;49.476;10.986;2023-04-03T06:19:31;99147.47;;;4.43;100.00
12879;BME280;20617;49.476;10.986;2023-04-03T06:21:36;99149.16;;;4.52;100.00
12879;BME280;20617;49.476;10.986;2023-04-03T06:23:42;99149.13;;;4.58;100.00
12879;BME280;20617;49.476;10.986;2023-04-03T06:25:47;99142.22;;;4.65;100.00
12879;BME280;20617;49.476;10.986;2023-04-03T06:27:52;99147.38;;;4.69;100.00
12879;BME280;20617;49.476;10.986;2023-04-03T06:29:57;99149.97;;;4.66;100.00
12879;BME280;20617;49.476;10.986;2023-04-03T06:32:02;99149.09;;;4.72;100.00
12879;BME280;20617;49.476;10.986;2023-04-03T06:34:10;99149.88;;;4.85;100.00
12879;BME280;20617;49.476;10.986;2023-04-03T06:36:18;99155.03;;;4.85;100.00
12879;BME280;20617;49.476;10.986;2023-04-03T06:38:24;99149.84;;;4.91;100.00
12879;BME280;20617;49.476;10.986;2023-04-03T06:40:29;99154.16;;;4.83;100.00
12879;BME280;20617;49.476;10.986;2023-04-03T06:42:34;99159.38;;;4.76;100.00
12879;BME280;20617;49.476;10.986;2023-04-03T06:44:45;99156.78;;;4.78;100.00
12879;BME280;20617;49.476;10.986;2023-04-03T06:46:50;99161.94;;;4.76;100.00
12879;BME280;20617;49.476;10.986;2023-04-03T06:48:56;99164.53;;;4.78;100.00
12879;BME280;20617;49.476;10.986;2023-04-03T06:51:03;99160.22;;;4.75;100.00
12879;BME280;20617;49.476;10.986;2023-04-03T06:53:09;99164.59;;;4.57;100.00
12879;BME280;20617;49.476;10.986;2023-04-03T06:55:14;99168.94;;;4.45;100.00
12879;BME280;20617;49.476;10.986;2023-04-03T06:57:19;99171.50;;;4.51;100.00
12879;BME280;20617;49.476;10.986;2023-04-03T06:59:24;99169.75;;;4.61;100.00
12879;BME280;20617;49.476;10.986;2023-04-03T07:01:29;99170.66;;;4.51;100.00
12879;BME280;20617;49.476;10.986;2023-04-03T07:03:34;99176.63;;;4.56;100.00
12879;BME280;20617;49.476;10.986;2023-04-03T07:05:40;99179.25;;;4.51;100.00
12879;BME280;20617;49.476;10.986;2023-04-03T07:07:49;99180.94;;;4.56;100.00
12879;BME280;20617;49.476;10.986;2023-04-03T07:09:54;99180.94;;;4.45;100.00
12879;BME280;20617;49.476;10.986;2023-04-03T07:11:59;99181.81;;;4.50;100.00
12879;BME280;20617;49.476;10.986;2023-04-03T07:14:04;99185.19;;;4.64;100.00
12879;BME280;20617;49.476;10.986;2023-04-03T07:16:10;99181.72;;;4.76;100.00
12879;BME280;20617;49.476;10.986;2023-04-03T07:18:15;99189.41;;;4.90;100.00
12879;BME280;20617;49.476;10.986;2023-04-03T07:20:20;99188.47;;;5.09;100.00
12879;BME280;20617;49.476;10.986;2023-04-03T07:22:25;99187.56;;;5.16;100.00
12879;BME280;20617;49.476;10.986;2023-04-03T07:24:32;99197.81;;;5.30;100.00
12879;BME280;20617;49.476;10.986;2023-04-03T07:26:37;99190.88;;;5.37;100.00
12879;BME280;20617;49.476;10.986;2023-04-03T07:28:42;99199.47;;;5.42;100.00
12879;BME280;20617;49.476;10.986;2023-04-03T07:30:51;99207.22;;;5.37;100.00
12879;BME280;20617;49.476;10.986;2023-04-03T07:32:56;99202.09;;;5.36;100.00
12879;BME280;20617;49.476;10.986;2023-04-03T07:35:03;99199.53;;;5.28;100.00
12879;BME280;20617;49.476;10.986;2023-04-03T07:37:08;99200.38;;;5.32;100.00
12879;BME280;20617;49.476;10.986;2023-04-03T07:39:13;99201.28;;;5.28;100.00
12879;BME280;20617;49.476;10.986;2023-04-03T07:41:20;99200.47;;;5.18;100.00
12879;BME280;20617;49.476;10.986;2023-04-03T07:43:25;99204.84;;;5.02;100.00
12879;BME280;20617;49.476;10.986;2023-04-03T07:45:31;99205.72;;;5.01;100.00
12879;BME280;20617;49.476;10.986;2023-04-03T07:47:36;99207.38;;;5.13;100.00
12879;BME280;20617;49.476;10.986;2023-04-03T07:49:41;99215.91;;;5.22;100.00
12879;BME280;20617;49.476;10.986;2023-04-03T07:51:46;99214.28;;;5.05;100.00
12879;BME280;20617;49.476;10.986;2023-04-03T07:53:51;99209.97;;;5.05;100.00
12879;BME280;20617;49.476;10.986;2023-04-03T07:55:56;99213.38;;;5.13;100.00
12879;BME280;20617;49.476;10.986;2023-04-03T07:58:04;99210.75;;;5.27;100.00
12879;BME280;20617;49.476;10.986;2023-04-03T08:00:11;99209.81;;;5.39;100.00
12879;BME280;20617;49.476;10.986;2023-04-03T08:02:16;99208.97;;;5.32;100.00
12879;BME280;20617;49.476;10.986;2023-04-03T08:04:22;99214.16;;;5.31;100.00
12879;BME280;20617;49.476;10.986;2023-04-03T08:06:28;99211.59;;;5.28;100.00
12879;BME280;20617;49.476;10.986;2023-04-03T08:08:47;99215.88;;;5.29;100.00
12879;BME280;20617;49.476;10.986;2023-04-03T08:10:53;99219.31;;;5.32;100.00
12879;BME280;20617;49.476;10.986;2023-04-03T08:12:59;99218.44;;;5.33;100.00
12879;BME280;20617;49.476;10.986;2023-04-03T08:15:08;99210.66;;;5.39;100.00
12879;BME280;20617;49.476;10.986;2023-04-03T08:17:13;99215.72;;;5.56;100.00
12879;BME280;20617;49.476;10.986;2023-04-03T08:19:18;99221.72;;;5.58;100.00
12879;BME280;20617;49.476;10.986;2023-04-03T08:21:27;99214.84;;;5.57;100.00
12879;BME280;20617;49.476;10.986;2023-04-03T08:23:32;99229.47;;;5.64;100.00
12879;BME280;20617;49.476;10.986;2023-04-03T08:25:38;99220.88;;;5.59;100.00
12879;BME280;20617;49.476;10.986;2023-04-03T08:27:43;99225.94;;;5.72;100.00
12879;BME280;20617;49.476;10.986;2023-04-03T08:29:48;99226.84;;;5.67;100.00
12879;BME280;20617;49.476;10.986;2023-04-03T08:31:56;99226.88;;;5.58;100.00
12879;BME280;20617;49.476;10.986;2023-04-03T08:34:01;99229.50;;;5.55;100.00
12879;BME280;20617;49.476;10.986;2023-04-03T08:36:07;99230.44;;;5.45;100.00
12879;BME280;20617;49.476;10.986;2023-04-03T08:38:12;99228.66;;;5.56;100.00
12879;BME280;20617;49.476;10.986;2023-04-03T08:40:18;99220.81;;;5.67;100.00
12879;BME280;20617;49.476;10.986;2023-04-03T08:42:34;99231.00;;;5.87;100.00
12879;BME280;20617;49.476;10.986;2023-04-03T08:44:48;99224.94;;;5.93;100.00
12879;BME280;20617;49.476;10.986;2023-04-03T08:47:12;99226.69;;;5.90;100.00
12879;BME280;20617;49.476;10.986;2023-04-03T08:49:26;99230.03;;;6.06;100.00
12879;BME280;20617;49.476;10.986;2023-04-03T08:51:33;99224.84;;;6.11;100.00
12879;BME280;20617;49.476;10.986;2023-04-03T08:53:39;99216.97;;;6.22;100.00
12879;BME280;20617;49.476;10.986;2023-04-03T08:55:47;99216.94;;;6.26;100.00
12879;BME280;20617;49.476;10.986;2023-04-03T08:57:58;99223.91;;;6.17;100.00
12879;BME280;20617;49.476;10.986;2023-04-03T09:00:10;99225.81;;;5.95;100.00
12879;BME280;20617;49.476;10.986;2023-04-03T09:02:31;99225.78;;;6.01;100.00
12879;BME280;20617;49.476;10.986;2023-04-03T09:04:38;99227.69;;;5.71;100.00
12879;BME280;20617;49.476;10.986;2023-04-03T09:06:45;99234.72;;;5.46;100.00
12879;BME280;20617;49.476;10.986;2023-04-03T09:09:04;99222.63;;;5.54;100.00
12879;BME280;20617;49.476;10.986;2023-04-03T09:11:17;99232.03;;;5.66;100.00
12879;BME280;20617;49.476;10.986;2023-04-03T09:13:33;99237.16;;;5.74;100.00
12879;BME280;20617;49.476;10.986;2023-04-03T09:15:41;99234.56;;;5.74;100.00
12879;BME280;20617;49.476;10.986;2023-04-03T09:17:58;99237.13;;;5.77;100.00
12879;BME280;20617;49.476;10.986;2023-04-03T09:20:14;99244.78;;;5.89;100.00
12879;BME280;20617;49.476;10.986;2023-04-03T09:22:24;99237.81;;;6.03;100.00
12879;BME280;20617;49.476;10.986;2023-04-03T09:24:31;99251.56;;;6.07;100.00
12879;BME280;20617;49.476;10.986;2023-04-03T09:26:42;99237.78;;;6.08;97.00
12879;BME280;20617;49.476;10.986;2023-04-03T09:28:48;99233.47;;;6.08;98.37
12879;BME280;20617;49.476;10.986;2023-04-03T09:30:54;99236.91;;;6.09;95.52
12879;BME280;20617;49.476;10.986;2023-04-03T09:33:01;99236.88;;;6.12;95.26
12879;BME280;20617;49.476;10.986;2023-04-03T09:35:16;99229.13;;;6.12;93.19
12879;BME280;20617;49.476;10.986;2023-04-03T09:37:39;99242.91;;;6.12;95.35
12879;BME280;20617;49.476;10.986;2023-04-03T09:39:50;99235.81;;;6.34;94.63
12879;BME280;20617;49.476;10.986;2023-04-03T09:41:58;99233.16;;;6.42;92.90
12879;BME280;20617;49.476;10.986;2023-04-03T09:44:20;99234.94;;;6.37;90.11
12879;BME280;20617;49.476;10.986;2023-04-03T09:46:29;99234.66;;;6.63;93.13
12879;BME280;20617;49.476;10.986;2023-04-03T09:48:37;99229.34;;;6.78;90.62
12879;BME280;20617;49.476;10.986;2023-04-03T09:50:57;99230.97;;;6.86;89.39
12879;BME280;20617;49.476;10.986;2023-04-03T09:53:07;99224.75;;;7.02;91.80
12879;BME280;20617;49.476;10.986;2023-04-03T09:55:14;99229.00;;;7.08;91.09
12879;BME280;20617;49.476;10.986;2023-04-03T09:57:20;99229.34;;;6.77;88.77
12879;BME280;20617;49.476;10.986;2023-04-03T09:59:25;99228.72;;;6.55;90.40
12879;BME280;20617;49.476;10.986;2023-04-03T10:01:31;99221.06;;;6.44;91.20
12879;BME280;20617;49.476;10.986;2023-04-03T10:03:39;99222.06;;;6.29;93.29
12879;BME280;20617;49.476;10.986;2023-04-03T10:05:48;99228.09;;;6.31;93.71
12879;BME280;20617;49.476;10.986;2023-04-03T10:08:15;99213.31;;;6.43;95.08
12879;BME280;20617;49.476;10.986;2023-04-03T10:10:25;99215.00;;;6.45;92.80
12879;BME280;20617;49.476;10.986;2023-04-03T10:12:30;99224.59;;;6.35;87.03
12879;BME280;20617;49.476;10.986;2023-04-03T10:14:37;99219.31;;;6.48;85.88
12879;BME280;20617;49.476;10.986;2023-04-03T10:16:46;99213.09;;;6.64;86.85
12879;BME280;20617;49.476;10.986;2023-04-03T10:19:05;99215.56;;;6.76;84.52
12879;BME280;20617;49.476;10.986;2023-04-03T10:21:19;99211.19;;;6.82;81.46
12879;BME280;20617;49.476;10.986;2023-04-03T10:23:32;99213.53;;;7.00;84.85
12879;BME280;20617;49.476;10.986;2023-04-03T10:25:42;99222.00;;;7.14;81.78
12879;BME280;20617;49.476;10.986;2023-04-03T10:27:53;99215.06;;;7.16;78.50
12879;BME280;20617;49.476;10.986;2023-04-03T10:30:09;99210.69;;;7.21;81.03
12879;BME280;20617;49.476;10.986;2023-04-03T10:32:42;99208.94;;;7.23;84.31
12879;BME280;20617;49.476;10.986;2023-04-03T10:34:57;99211.25;;;7.45;84.14
12879;BME280;20617;49.476;10.986;2023-04-03T10:37:13;99202.75;;;7.32;84.45
12879;BME280;20617;49.476;10.986;2023-04-03T10:39:28;99199.28;;;7.35;82.57
12879;BME280;20617;49.476;10.986;2023-04-03T10:41:45;99203.81;;;7.19;81.90
12879;BME280;20617;49.476;10.986;2023-04-03T10:44:02;99201.91;;;7.33;81.66
12879;BME280;20617;49.476;10.986;2023-04-03T10:46:12;99197.75;;;7.20;79.01
12879;BME280;20617;49.476;10.986;2023-04-03T10:48:28;99203.19;;;7.00;80.65
12879;BME280;20617;49.476;10.986;2023-04-03T10:50:44;99211.19;;;6.82;81.31
12879;BME280;20617;49.476;10.986;2023-04-03T10:53:03;99205.97;;;6.83;80.89
12879;BME280;20617;49.476;10.986;2023-04-03T10:55:23;99204.06;;;6.99;78.74
12879;BME280;20617;49.476;10.986;2023-04-03T10:57:30;99193.47;;;7.17;78.63
12879;BME280;20617;49.476;10.986;2023-04-03T10:59:37;99195.09;;;7.26;77.13
12879;BME280;20617;49.476;10.986;2023-04-03T11:01:45;99195.97;;;7.25;77.79
12879;BME280;20617;49.476;10.986;2023-04-03T11:03:53;99195.22;;;7.15;75.08
12879;BME280;20617;49.476;10.986;2023-04-03T11:06:05;99190.31;;;6.95;72.37
12879;BME280;20617;49.476;10.986;2023-04-03T11:08:27;99179.09;;;6.95;71.92
12879;BME280;20617;49.476;10.986;2023-04-03T11:10:39;99180.88;;;6.93;71.42
12879;BME280;20617;49.476;10.986;2023-04-03T11:12:48;99177.47;;;6.86;73.09